Time;durP1;ratioP1;P1;durP2;ratioP2;P2;SDS_P1;SDS_P2;PMS_P1;PMS_P2;Temp;Humidity;BMP_temperature;BMP_pressure;BME280_temperature;BME280_humidity;BME280_pressure;Samples;Min_cycle;Max_cycle;Signal;HPM_P1;HPM_P2
2024/01/17 00:00:23;;;;;;;27.83;16.50;;;;;;;-4.00;100.00;100095.34;5084525;28;20023;-77
2024/01/17 00:02:49;;;;;;;26.17;15.48;;;;;;;-3.99;100.00;100086.81;5081134;28;20090;-77
2024/01/17 00:05:14;;;;;;;27.08;15.90;;;;;;;-4.01;100.00;100088.41;5084049;28;20040;-77
2024/01/17 00:07:40;;;;;;;26.65;15.65;;;;;;;-4.02;100.00;100078.88;5080798;28;20044;-77
2024/01/17 00:10:06;;;;;;;28.00;15.95;;;;;;;-3.99;100.00;100078.16;5083336;28;20036;-77
2024/01/17 00:12:32;;;;;;;27.40;15.90;;;;;;;-4.06;100.00;100071.81;5081971;28;20063;-77
2024/01/17 00:14:57;;;;;;;27.10;15.70;;;;;;;-4.07;100.00;100067.44;5081687;28;20056;-77
2024/01/17 00:17:22;;;;;;;27.08;15.65;;;;;;;-4.07;100.00;100059.69;5084636;28;20073;-77
2024/01/17 00:19:49;;;;;;;27.23;15.30;;;;;;;-4.11;100.00;100053.47;5076826;28;20025;-77
2024/01/17 00:22:16;;;;;;;27.00;15.88;;;;;;;-4.09;100.00;100046.72;5083835;28;20028;-77
2024/01/17 00:24:41;;;;;;;27.35;15.63;;;;;;;-4.09;100.00;100038.97;5081456;28;20053;-77
2024/01/17 00:27:07;;;;;;;29.13;16.52;;;;;;;-4.06;100.00;100035.66;5082728;28;20060;-77
2024/01/17 00:29:32;;;;;;;26.95;15.82;;;;;;;-4.09;100.00;100035.47;5083401;28;20077;-77
2024/01/17 00:31:57;;;;;;;26.60;15.68;;;;;;;-4.12;100.00;100023.31;5081440;28;20032;-77
2024/01/17 00:34:23;;;;;;;27.35;15.55;;;;;;;-4.14;100.00;100021.47;5084269;28;20024;-77
2024/01/17 00:36:48;;;;;;;27.73;15.77;;;;;;;-4.15;100.00;100023.16;5062790;28;20033;-77
2024/01/17 00:39:14;;;;;;;26.20;14.90;;;;;;;-4.15;100.00;100011.94;5082429;28;20103;-77
2024/01/17 00:41:40;;;;;;;26.45;15.35;;;;;;;-4.16;100.00;100008.47;5082073;28;20028;-77
2024/01/17 00:44:05;;;;;;;27.83;15.18;;;;;;;-4.18;100.00;100004.91;5081583;28;20422;-77
2024/01/17 00:46:31;;;;;;;27.23;15.38;;;;;;;-4.20;100.00;99993.63;5083263;28;20035;-77
2024/01/17 00:48:56;;;;;;;26.48;15.35;;;;;;;-4.23;100.00;99989.22;5081022;28;20034;-77
2024/01/17 00:51:23;;;;;;;27.05;15.57;;;;;;;-4.21;100.00;99995.34;5084240;28;20051;-77
2024/01/17 00:53:48;;;;;;;26.60;14.98;;;;;;;-4.24;100.00;99992.63;5076402;28;20115;-77
2024/01/17 00:56:13;;;;;;;26.92;15.30;;;;;;;-4.25;100.00;99979.59;5083358;28;20112;-77
2024/01/17 00:58:39;;;;;;;27.15;15.38;;;;;;;-4.25;100.00;99974.44;5082041;28;20032;-77
2024/01/17 01:01:04;;;;;;;26.73;14.77;;;;;;;-4.27;100.00;99966.63;5081995;28;20062;-77
2024/01/17 01:03:29;;;;;;;27.33;15.13;;;;;;;-4.28;100.00;99958.81;5081566;28;20101;-77
2024/01/17 01:05:55;;;;;;;27.67;14.77;;;;;;;-4.24;100.00;99950.41;5063129;28;20024;-77
2024/01/17 01:08:20;;;;;;;28.73;15.40;;;;;;;-4.21;100.00;99958.31;5083921;28;20038;-76
2024/01/17 01:10:45;;;;;;;26.23;14.80;;;;;;;-4.23;100.00;99958.22;5080946;28;20467;-77
2024/01/17 01:13:11;;;;;;;26.15;14.88;;;;;;;-4.25;100.00;99949.53;5082814;28;20025;-77
2024/01/17 01:15:37;;;;;;;27.02;14.90;;;;;;;-4.29;100.00;99959.63;5080765;28;20026;-77
2024/01/17 01:18:02;;;;;;;26.15;14.88;;;;;;;-4.30;100.00;99947.53;5081779;28;20051;-76
2024/01/17 01:20:28;;;;;;;26.13;14.05;;;;;;;-4.29;100.00;99947.59;5083142;28;20066;-77
2024/01/17 01:22:53;;;;;;;26.23;14.95;;;;;;;-4.28;100.00;99944.22;5080228;28;20477;-77
2024/01/17 01:25:19;;;;;;;24.70;14.40;;;;;;;-4.30;100.00;99940.66;5076729;28;20025;-76
2024/01/17 01:27:44;;;;;;;26.08;14.07;;;;;;;-4.26;100.00;99928.81;5083125;28;20042;-76
2024/01/17 01:30:10;;;;;;;26.15;14.40;;;;;;;-4.26;100.00;99936.56;5081456;28;20119;-76
2024/01/17 01:32:35;;;;;;;25.75;13.98;;;;;;;-4.29;100.00;99926.97;5082102;28;20029;-76
2024/01/17 01:35:00;;;;;;;26.23;14.27;;;;;;;-4.26;100.00;99931.41;5082633;28;20036;-77
2024/01/17 01:37:26;;;;;;;26.02;13.48;;;;;;;-4.24;100.00;99935.84;5081769;28;20036;-76
2024/01/17 01:39:51;;;;;;;28.13;14.18;;;;;;;-4.22;100.00;99933.31;5087762;28;20057;-77
2024/01/17 01:42:16;;;;;;;25.08;13.52;;;;;;;-4.25;100.00;99933.16;5083865;28;20032;-76
2024/01/17 01:44:42;;;;;;;24.90;13.63;;;;;;;-4.22;100.00;99936.78;5086354;28;20498;-76
2024/01/17 01:47:08;;;;;;;26.50;13.93;;;;;;;-4.20;100.00;99926.53;5084235;28;20020;-76
2024/01/17 01:49:35;;;;;;;24.92;13.15;;;;;;;-4.18;100.00;99934.34;5084944;28;20032;-76
2024/01/17 01:52:01;;;;;;;26.42;14.02;;;;;;;-4.16;100.00;99931.03;5086178;28;20479;-76
2024/01/17 01:54:27;;;;;;;25.40;13.77;;;;;;;-4.17;100.00;99926.66;5083876;28;20040;-77
2024/01/17 01:56:53;;;;;;;24.77;13.43;;;;;;;-4.17;100.00;99925.78;5085679;28;20432;-76
2024/01/17 01:59:19;;;;;;;24.88;13.70;;;;;;;-4.16;100.00;99912.09;5083666;28;20109;-77
2024/01/17 02:01:45;;;;;;;24.88;13.25;;;;;;;-4.17;100.00;99905.16;5084937;28;20036;-76
2024/01/17 02:04:11;;;;;;;25.48;13.23;;;;;;;-4.16;100.00;99909.50;5084299;28;20047;-76
2024/01/17 02:06:38;;;;;;;25.30;13.43;;;;;;;-4.17;100.00;99910.31;5085272;28;20028;-77
2024/01/17 02:09:04;;;;;;;25.13;13.07;;;;;;;-4.20;100.00;99901.59;5084093;28;20020;-76
2024/01/17 02:11:30;;;;;;;26.02;13.98;;;;;;;-4.26;100.00;99896.13;5083964;28;20035;-76
2024/01/17 02:13:56;;;;;;;25.27;13.88;;;;;;;-4.26;100.00;99903.88;5068535;28;20024;-76
2024/01/17 02:16:23;;;;;;;24.73;13.57;;;;;;;-4.23;100.00;99896.28;5083170;28;20561;-76
2024/01/17 02:18:49;;;;;;;24.48;13.50;;;;;;;-4.25;100.00;99897.91;5086399;28;20241;-76
2024/01/17 02:21:15;;;;;;;25.05;13.95;;;;;;;-4.23;100.00;99893.69;5083775;28;20025;-76
2024/01/17 02:23:40;;;;;;;25.67;13.30;;;;;;;-4.23;100.00;99890.25;5085204;28;20032;-76
2024/01/17 02:26:06;;;;;;;25.48;13.63;;;;;;;-4.23;100.00;99885.94;5084744;28;20024;-76
2024/01/17 02:28:31;;;;;;;26.42;13.52;;;;;;;-4.20;100.00;99878.34;5084039;28;20618;-76
2024/01/17 02:30:59;;;;;;;25.33;13.30;;;;;;;-4.22;100.00;99872.25;5085843;28;20386;-75
2024/01/17 02:33:24;;;;;;;25.10;13.90;;;;;;;-4.22;100.00;99858.47;5082835;28;20036;-75
2024/01/17 02:35:50;;;;;;;25.38;13.18;;;;;;;-4.21;100.00;99857.63;5078828;28;20029;-75
2024/01/17 02:38:16;;;;;;;25.13;13.40;;;;;;;-4.23;100.00;99844.66;5085620;28;20024;-75
2024/01/17 02:40:41;;;;;;;25.13;13.05;;;;;;;-4.28;100.00;99841.00;5083736;28;20114;-75
2024/01/17 02:43:06;;;;;;;24.58;13.20;;;;;;;-4.27;100.00;99840.16;5084621;28;20036;-75
2024/01/17 02:45:32;;;;;;;25.27;13.10;;;;;;;-4.30;100.00;99826.22;5085198;28;20093;-75
2024/01/17 02:47:58;;;;;;;25.58;13.48;;;;;;;-4.29;100.00;99822.84;5082677;28;20021;-75
2024/01/17 02:50:24;;;;;;;24.05;12.98;;;;;;;-4.31;100.00;99820.19;5085924;28;20028;-75
2024/01/17 02:52:49;;;;;;;25.05;13.57;;;;;;;-4.30;100.00;99821.06;5082473;28;20020;-75
2024/01/17 02:55:18;;;;;;;24.73;13.07;;;;;;;-4.31;100.00;99820.19;5085242;28;20372;-75
2024/01/17 02:57:44;;;;;;;26.70;13.27;;;;;;;-4.32;100.00;99813.25;5083105;28;20455;-75
2024/01/17 03:00:10;;;;;;;24.30;13.00;;;;;;;-4.36;100.00;99800.13;5084313;28;20082;-75
2024/01/17 03:02:35;;;;;;;23.90;12.75;;;;;;;-4.33;100.00;99795.13;5084121;28;20032;-75
2024/01/17 03:05:03;;;;;;;25.83;12.95;;;;;;;-4.37;100.00;99794.06;5082963;28;20048;-74
2024/01/17 03:07:28;;;;;;;24.08;13.02;;;;;;;-4.41;100.00;99792.19;5084928;28;20463;-75
2024/01/17 03:09:54;;;;;;;24.30;12.80;;;;;;;-4.36;100.00;99784.66;5082476;28;20028;-75
2024/01/17 03:12:20;;;;;;;24.70;13.15;;;;;;;-4.39;100.00;99787.97;5085643;28;20425;-75
2024/01/17 03:14:45;;;;;;;25.05;12.90;;;;;;;-4.38;100.00;99787.16;5082574;28;20048;-75
2024/01/17 03:17:12;;;;;;;24.60;12.77;;;;;;;-4.38;100.00;99789.75;5084287;28;20052;-75
2024/01/17 03:19:38;;;;;;;26.30;13.73;;;;;;;-4.35;100.00;99796.72;5082222;28;20042;-75
2024/01/17 03:22:03;;;;;;;24.25;13.13;;;;;;;-4.38;100.00;99784.59;5083052;28;20040;-75
2024/01/17 03:24:29;;;;;;;25.48;12.85;;;;;;;-4.43;100.00;99779.19;5083655;28;20028;-74
2024/01/17 03:26:54;;;;;;;24.70;12.95;;;;;;;-4.41;100.00;99780.16;5081719;28;20041;-75
2024/01/17 03:29:19;;;;;;;26.02;12.70;;;;;;;-4.47;100.00;99777.28;5085327;28;20035;-75
2024/01/17 03:31:45;;;;;;;25.13;13.10;;;;;;;-4.45;100.00;99769.63;5082861;28;20036;-75
2024/01/17 03:34:10;;;;;;;25.38;13.45;;;;;;;-4.41;100.00;99763.81;5083708;28;20029;-75
2024/01/17 03:36:35;;;;;;;24.67;13.00;;;;;;;-4.40;100.00;99747.47;5082108;28;20032;-75
2024/01/17 03:39:01;;;;;;;25.40;12.90;;;;;;;-4.40;100.00;99748.38;5081305;28;20052;-75
2024/01/17 03:41:27;;;;;;;24.75;12.85;;;;;;;-4.36;100.00;99731.34;5084454;28;20032;-75
2024/01/17 03:43:53;;;;;;;25.25;13.00;;;;;;;-4.33;100.00;99723.72;5081898;28;20025;-75
2024/01/17 03:46:18;;;;;;;24.40;12.90;;;;;;;-4.31;100.00;99722.13;5084521;28;20034;-75
2024/01/17 03:48:43;;;;;;;24.98;12.48;;;;;;;-4.31;100.00;99711.81;5082478;28;20051;-75
2024/01/17 03:51:09;;;;;;;24.92;12.50;;;;;;;-4.30;100.00;99703.22;5083386;28;20463;-75
2024/01/17 03:53:34;;;;;;;24.80;12.25;;;;;;;-4.29;100.00;99694.66;5083470;28;20531;-75
2024/01/17 03:55:59;;;;;;;24.40;12.00;;;;;;;-4.33;100.00;99685.03;5081994;28;20029;-75
2024/01/17 03:58:25;;;;;;;24.50;12.45;;;;;;;-4.27;100.00;99677.53;5084893;28;20024;-75
2024/01/17 04:00:51;;;;;;;24.33;12.30;;;;;;;-4.27;100.00;99671.50;5075206;28;20033;-75
2024/01/17 04:03:16;;;;;;;25.88;12.77;;;;;;;-4.27;100.00;99667.22;5082420;28;20506;-75
2024/01/17 04:05:43;;;;;;;22.92;12.00;;;;;;;-4.27;100.00;99667.22;5082541;28;20098;-75
2024/01/17 04:08:09;;;;;;;23.77;12.20;;;;;;;-4.25;100.00;99660.44;5081596;28;20048;-75
2024/01/17 04:10:35;;;;;;;24.25;11.88;;;;;;;-4.19;100.00;99652.09;5083204;28;20058;-75
2024/01/17 04:13:00;;;;;;;24.30;11.93;;;;;;;-4.18;100.00;99645.22;5081987;28;20035;-75
2024/01/17 04:15:26;;;;;;;23.00;11.70;;;;;;;-4.20;100.00;99630.53;5084466;28;20390;-75
2024/01/17 04:17:51;;;;;;;22.75;11.68;;;;;;;-4.18;100.00;99629.75;5081104;28;20040;-75
2024/01/17 04:20:16;;;;;;;23.17;11.43;;;;;;;-4.18;100.00;99629.75;5084016;28;20420;-76
2024/01/17 04:22:42;;;;;;;25.25;11.90;;;;;;;-4.19;100.00;99613.38;5082082;28;20043;-75
2024/01/17 04:25:07;;;;;;;24.25;11.68;;;;;;;-4.13;100.00;99615.34;5082992;28;20426;-75
2024/01/17 04:27:33;;;;;;;25.25;11.85;;;;;;;-4.11;100.00;99605.97;5083329;28;20035;-74
2024/01/17 04:29:58;;;;;;;24.60;11.93;;;;;;;-4.14;100.00;99603.25;5081139;28;20024;-74
2024/01/17 04:32:28;;;;;;;23.92;11.60;;;;;;;-4.22;100.00;99595.19;5084424;28;20170;-74
2024/01/17 04:34:53;;;;;;;23.83;11.23;;;;;;;-4.20;100.00;99584.09;5077012;28;20029;-74
2024/01/17 04:37:19;;;;;;;23.50;11.27;;;;;;;-4.22;100.00;99582.28;5065891;28;20031;-74
2024/01/17 04:39:44;;;;;;;23.33;11.25;;;;;;;-4.20;100.00;99581.50;5081781;28;20360;-74
2024/01/17 04:42:09;;;;;;;23.75;11.70;;;;;;;-4.20;100.00;99576.34;5082713;28;20040;-74
2024/01/17 04:44:35;;;;;;;24.27;11.38;;;;;;;-4.21;100.00;99574.59;5082863;28;20429;-74
2024/01/17 04:47:00;;;;;;;24.17;11.35;;;;;;;-4.17;100.00;99564.41;5080349;28;20056;-74
2024/01/17 04:49:27;;;;;;;21.98;11.30;;;;;;;-4.24;100.00;99569.31;5084386;28;20471;-74
2024/01/17 04:51:53;;;;;;;23.40;11.30;;;;;;;-4.27;100.00;99565.69;5076788;28;20115;-74
2024/01/17 04:54:22;;;;;;;23.20;11.63;;;;;;;-4.31;100.00;99556.06;5084234;28;20035;-74
2024/01/17 04:56:48;;;;;;;24.05;11.95;;;;;;;-4.30;100.00;99545.78;5080917;28;20036;-74
2024/01/17 04:59:13;;;;;;;24.67;12.25;;;;;;;-4.28;100.00;99539.00;5083310;28;20222;-74
2024/01/17 05:01:39;;;;;;;24.67;11.30;;;;;;;-4.28;100.00;99533.84;5082613;28;20126;-74
2024/01/17 05:04:04;;;;;;;23.05;11.15;;;;;;;-4.28;100.00;99535.53;5081354;28;20513;-74
2024/01/17 05:06:31;;;;;;;24.33;11.77;;;;;;;-4.25;100.00;99530.50;5083440;28;20058;-76
2024/01/17 05:08:57;;;;;;;23.85;11.70;;;;;;;-4.18;100.00;99532.53;5080763;28;20024;-76
2024/01/17 05:11:24;;;;;;;24.08;11.43;;;;;;;-4.23;100.00;99527.16;5085496;28;20031;-75
2024/01/17 05:13:49;;;;;;;24.42;11.45;;;;;;;-4.26;100.00;99519.31;5084842;28;20025;-76
2024/01/17 05:16:15;;;;;;;23.58;11.35;;;;;;;-4.27;100.00;99520.09;5087048;28;20119;-74
2024/01/17 05:18:40;;;;;;;23.75;11.65;;;;;;;-4.20;100.00;99510.94;5085908;28;20032;-75
2024/01/17 05:21:05;;;;;;;23.13;11.13;;;;;;;-4.22;100.00;99497.97;5085404;28;20028;-75
2024/01/17 05:23:31;;;;;;;24.23;11.57;;;;;;;-4.20;100.00;99501.47;5085877;28;20032;-75
2024/01/17 05:25:56;;;;;;;25.25;12.18;;;;;;;-4.15;100.00;99500.81;5083993;28;20039;-75
2024/01/17 05:28:22;;;;;;;23.63;11.27;;;;;;;-4.10;100.00;99496.72;5087662;28;20458;-76
2024/01/17 05:30:47;;;;;;;22.38;10.93;;;;;;;-4.17;100.00;99492.13;5083199;28;20040;-76
2024/01/17 05:33:13;;;;;;;23.60;11.20;;;;;;;-4.13;100.00;99488.88;5086440;28;20115;-76
2024/01/17 05:35:38;;;;;;;24.13;11.60;;;;;;;-4.23;100.00;99483.28;5085864;28;20537;-76
2024/01/17 05:38:03;;;;;;;25.20;11.68;;;;;;;-4.20;100.00;99485.13;5083600;28;20033;-76
2024/01/17 05:40:29;;;;;;;23.95;11.52;;;;;;;-4.24;100.00;99471.22;5086903;28;20028;-76
2024/01/17 05:42:54;;;;;;;23.98;11.63;;;;;;;-4.31;100.00;99474.38;5083839;28;20426;-75
2024/01/17 05:45:20;;;;;;;23.23;11.77;;;;;;;-4.30;100.00;99460.63;5086928;28;20032;-75
2024/01/17 05:47:45;;;;;;;25.00;12.25;;;;;;;-4.35;100.00;99462.16;5084466;28;20099;-76
2024/01/17 05:50:11;;;;;;;23.88;12.38;;;;;;;-4.42;100.00;99460.13;5085763;28;20395;-76
2024/01/17 05:52:41;;;;;;;23.50;11.73;;;;;;;-4.49;100.00;99455.53;5084299;28;20028;-75
2024/01/17 05:55:08;;;;;;;24.63;12.38;;;;;;;-4.56;100.00;99452.69;5084911;28;20066;-75
2024/01/17 05:57:34;;;;;;;23.80;12.13;;;;;;;-4.55;100.00;99448.41;5086163;28;20103;-76
2024/01/17 05:59:59;;;;;;;24.30;11.77;;;;;;;-4.50;100.00;99457.22;5065638;28;20024;-76
2024/01/17 06:02:24;;;;;;;24.42;12.52;;;;;;;-4.46;100.00;99455.66;5086851;28;20119;-76
2024/01/17 06:04:50;;;;;;;25.05;12.60;;;;;;;-4.44;100.00;99442.00;5082193;28;20135;-76
2024/01/17 06:07:16;;;;;;;22.85;11.57;;;;;;;-4.32;100.00;99441.63;5084659;28;20041;-74
2024/01/17 06:09:43;;;;;;;23.77;11.70;;;;;;;-4.37;100.00;99440.53;5083772;28;20420;-74
2024/01/17 06:12:09;;;;;;;24.95;12.35;;;;;;;-4.33;100.00;99431.25;5085033;28;20054;-76
2024/01/17 06:14:35;;;;;;;25.30;12.65;;;;;;;-4.27;100.00;99434.06;5085476;28;20024;-76
2024/01/17 06:17:00;;;;;;;24.48;12.02;;;;;;;-4.32;100.00;99431.31;5083811;28;20032;-76
2024/01/17 06:19:25;;;;;;;24.77;12.35;;;;;;;-4.29;100.00;99433.13;5086788;28;20024;-76
2024/01/17 06:21:51;;;;;;;24.77;12.77;;;;;;;-4.27;100.00;99428.91;5082993;28;20029;-75
2024/01/17 06:24:16;;;;;;;24.67;13.05;;;;;;;-4.20;100.00;99413.72;5085064;28;20121;-76
2024/01/17 06:26:42;;;;;;;24.63;12.68;;;;;;;-4.21;100.00;99409.41;5084542;28;20081;-75
2024/01/17 06:29:07;;;;;;;25.38;13.10;;;;;;;-4.14;100.00;99409.66;5084212;28;20025;-74
2024/01/17 06:31:32;;;;;;;25.38;13.63;;;;;;;-4.13;100.00;99411.41;5085804;28;20028;-76
2024/01/17 06:33:58;;;;;;;24.98;13.32;;;;;;;-4.12;100.00;99406.31;5082944;28;20051;-76
2024/01/17 06:36:24;;;;;;;25.02;13.48;;;;;;;-4.11;100.00;99399.44;5086184;28;20028;-74
2024/01/17 06:38:50;;;;;;;24.90;13.48;;;;;;;-4.05;100.00;99391.94;5083242;28;20048;-74
2024/01/17 06:41:17;;;;;;;24.92;13.07;;;;;;;-4.09;100.00;99392.63;5085097;28;20028;-74
2024/01/17 06:43:42;;;;;;;25.55;13.57;;;;;;;-4.03;100.00;99383.44;5083973;28;20090;-74
2024/01/17 06:46:07;;;;;;;25.02;13.40;;;;;;;-4.03;100.00;99387.72;5066213;28;20032;-74
2024/01/17 06:48:33;;;;;;;24.83;13.25;;;;;;;-4.00;100.00;99380.09;5085106;28;20024;-76
2024/01/17 06:50:58;;;;;;;25.67;13.32;;;;;;;-3.97;100.00;99376.75;5082548;28;20468;-74
2024/01/17 06:53:23;;;;;;;25.60;13.52;;;;;;;-3.92;100.00;99377.81;5086013;28;20064;-75
2024/01/17 06:55:49;;;;;;;25.00;13.13;;;;;;;-3.93;100.00;99370.88;5082740;28;20029;-74
2024/01/17 06:58:15;;;;;;;25.30;13.23;;;;;;;-3.92;100.00;99377.81;5084946;28;20029;-74
2024/01/17 07:00:41;;;;;;;26.00;13.63;;;;;;;-3.91;100.00;99367.53;5084022;28;20028;-76
2024/01/17 07:03:06;;;;;;;26.25;13.73;;;;;;;-3.91;100.00;99359.78;5083205;28;20028;-73
2024/01/17 07:05:32;;;;;;;24.95;13.20;;;;;;;-3.87;100.00;99351.34;5083649;28;20048;-75
2024/01/17 07:07:57;;;;;;;24.40;13.38;;;;;;;-3.86;100.00;99350.53;5082345;28;20538;-73
2024/01/17 07:10:23;;;;;;;26.20;14.20;;;;;;;-3.82;100.00;99351.50;5084597;28;20539;-73
2024/01/17 07:12:50;;;;;;;25.35;13.32;;;;;;;-3.76;100.00;99336.25;5082725;28;20392;-74
2024/01/17 07:15:16;;;;;;;25.75;13.57;;;;;;;-3.79;100.00;99330.97;5083181;28;20348;-73
2024/01/17 07:17:41;;;;;;;26.17;13.57;;;;;;;-3.73;100.00;99331.22;5083415;28;20183;-74
2024/01/17 07:20:08;;;;;;;24.73;12.98;;;;;;;-3.76;100.00;99322.47;5083348;28;20499;-75
2024/01/17 07:22:35;;;;;;;25.27;13.32;;;;;;;-3.72;100.00;99326.91;5084276;28;20032;-75
2024/01/17 07:25:00;;;;;;;25.42;13.27;;;;;;;-3.76;100.00;99317.28;5080884;28;20021;-75
2024/01/17 07:27:26;;;;;;;24.88;13.07;;;;;;;-3.80;100.00;99312.84;5085542;28;20024;-75
2024/01/17 07:29:51;;;;;;;23.63;12.32;;;;;;;-3.79;100.00;99315.47;5081876;28;20036;-74
2024/01/17 07:32:16;;;;;;;26.00;12.80;;;;;;;-3.78;100.00;99295.72;5084266;28;20028;-75
2024/01/17 07:34:42;;;;;;;24.52;13.07;;;;;;;-3.74;100.00;99289.81;5083125;28;20089;-73
2024/01/17 07:37:07;;;;;;;24.92;13.00;;;;;;;-3.73;100.00;99289.88;5082841;28;20033;-73
2024/01/17 07:39:32;;;;;;;24.40;13.32;;;;;;;-3.75;100.00;99282.91;5082924;28;20462;-72
2024/01/17 07:41:58;;;;;;;24.40;12.98;;;;;;;-3.78;100.00;99282.78;5081561;28;20489;-73
2024/01/17 07:44:27;;;;;;;25.83;13.35;;;;;;;-3.74;100.00;99277.78;5084831;28;20100;-75
2024/01/17 07:46:53;;;;;;;25.83;13.38;;;;;;;-3.73;100.00;99270.91;5080238;28;20139;-74
2024/01/17 07:49:19;;;;;;;25.00;13.63;;;;;;;-3.72;100.00;99264.94;5083147;28;20047;-76
2024/01/17 07:51:44;;;;;;;25.45;13.77;;;;;;;-3.73;100.00;99255.41;5082472;28;20036;-74
2024/01/17 07:54:09;;;;;;;24.45;12.80;;;;;;;-3.75;100.00;99252.78;5082778;28;20027;-77
2024/01/17 07:56:35;;;;;;;24.23;13.40;;;;;;;-3.70;100.00;99242.59;5083899;28;20073;-77
2024/01/17 07:59:00;;;;;;;25.00;13.20;;;;;;;-3.68;100.00;99246.13;5063392;28;20025;-77
2024/01/17 08:01:26;;;;;;;26.17;13.68;;;;;;;-3.63;100.00;99243.72;5083737;28;20089;-77
2024/01/17 08:03:51;;;;;;;24.98;13.10;;;;;;;-3.63;100.00;99239.41;5081423;28;20092;-77
2024/01/17 08:06:19;;;;;;;25.00;13.50;;;;;;;-3.64;100.00;99232.50;5082405;28;20176;-77
2024/01/17 08:08:44;;;;;;;24.45;13.38;;;;;;;-3.55;100.00;99225.06;5082449;28;20119;-77
2024/01/17 08:11:10;;;;;;;24.45;13.43;;;;;;;-3.47;100.00;99229.63;5082973;28;20111;-77
2024/01/17 08:13:36;;;;;;;25.13;13.40;;;;;;;-3.48;100.00;99231.34;5083517;28;20105;-77
2024/01/17 08:16:01;;;;;;;25.23;13.52;;;;;;;-3.44;100.00;99228.03;5081704;28;20036;-77
2024/01/17 08:18:27;;;;;;;24.58;13.10;;;;;;;-3.38;100.00;99222.19;5084485;28;20028;-77
2024/01/17 08:20:52;;;;;;;25.05;12.43;;;;;;;-3.33;100.00;99216.34;5079892;28;20038;-77
2024/01/17 08:23:17;;;;;;;25.55;12.85;;;;;;;-3.29;100.00;99219.94;5082685;28;20037;-77
2024/01/17 08:25:43;;;;;;;25.00;11.70;;;;;;;-3.18;100.00;99213.41;5081063;28;20028;-77
2024/01/17 08:28:08;;;;;;;24.48;11.75;;;;;;;-3.08;100.00;99208.56;5082521;28;20436;-75
2024/01/17 08:30:33;;;;;;;23.85;11.90;;;;;;;-3.04;100.00;99211.28;5082554;28;20020;-75
2024/01/17 08:32:59;;;;;;;24.00;11.13;;;;;;;-3.02;100.00;99199.25;5081271;28;20040;-75
2024/01/17 08:35:25;;;;;;;24.10;11.63;;;;;;;-2.98;100.00;99206.31;5084239;28;20386;-74
2024/01/17 08:37:50;;;;;;;23.67;12.63;;;;;;;-2.94;100.00;99196.94;5081362;28;20055;-76
2024/01/17 08:40:16;;;;;;;24.67;12.85;;;;;;;-2.96;100.00;99190.84;5081896;28;20078;-74
2024/01/17 08:42:44;;;;;;;25.48;13.43;;;;;;;-2.96;100.00;99183.06;5081206;28;20032;-75
2024/01/17 08:45:10;;;;;;;26.75;15.45;;;;;;;-2.98;100.00;99179.56;5082480;28;20057;-74
2024/01/17 08:47:36;;;;;;;26.17;15.80;;;;;;;-2.83;100.00;99187.81;5086601;28;20111;-74
2024/01/17 08:50:01;;;;;;;26.70;13.90;;;;;;;-2.76;100.00;99181.13;5085618;28;20498;-76
2024/01/17 08:52:27;;;;;;;24.65;12.98;;;;;;;-2.72;100.00;99163.97;5088185;28;20031;-73
2024/01/17 08:54:56;;;;;;;25.23;13.20;;;;;;;-2.72;100.00;99166.56;5084785;28;20068;-73
2024/01/17 08:57:21;;;;;;;25.73;13.10;;;;;;;-2.71;100.00;99158.88;5088232;28;20090;-73
2024/01/17 08:59:46;;;;;;;25.25;12.15;;;;;;;-2.76;100.00;99156.97;5085830;28;20451;-75
2024/01/17 09:02:12;;;;;;;26.05;12.27;;;;;;;-2.73;100.00;99147.59;5086260;28;20106;-74
2024/01/17 09:04:37;;;;;;;25.00;12.52;;;;;;;-2.74;100.00;99145.81;5086858;28;20092;-74
2024/01/17 09:07:03;;;;;;;23.85;12.68;;;;;;;-2.80;100.00;99137.88;5084729;28;20137;-74
2024/01/17 09:09:28;;;;;;;23.83;12.48;;;;;;;-2.89;100.00;99137.59;5087897;28;20425;-73
2024/01/17 09:11:54;;;;;;;25.17;13.00;;;;;;;-2.94;100.00;99134.88;5080381;28;20029;-73
2024/01/17 09:14:21;;;;;;;25.58;12.48;;;;;;;-2.90;100.00;99133.25;5085903;28;20024;-76
2024/01/17 09:16:50;;;;;;;25.27;12.85;;;;;;;-2.76;100.00;99136.28;5085213;28;20069;-74
2024/01/17 09:19:15;;;;;;;25.42;13.13;;;;;;;-2.71;100.00;99129.53;5086512;28;20020;-73
2024/01/17 09:21:40;;;;;;;25.60;12.90;;;;;;;-2.67;100.00;99124.47;5085877;28;20039;-74
2024/01/17 09:24:06;;;;;;;24.92;13.40;;;;;;;-2.65;100.00;99132.28;5085035;28;20039;-74
2024/01/17 09:26:32;;;;;;;25.23;13.27;;;;;;;-2.63;100.00;99121.16;5086086;28;20038;-76
2024/01/17 09:28:57;;;;;;;23.75;12.65;;;;;;;-2.68;100.00;99120.16;5084043;28;20115;-73
2024/01/17 09:31:23;;;;;;;24.08;12.85;;;;;;;-2.73;100.00;99119.13;5085984;28;20115;-74
2024/01/17 09:33:48;;;;;;;25.35;13.07;;;;;;;-2.73;100.00;99113.09;5085059;28;20508;-73
2024/01/17 09:36:14;;;;;;;25.10;13.98;;;;;;;-2.74;100.00;99111.31;5085795;28;20067;-74
2024/01/17 09:38:39;;;;;;;24.90;12.80;;;;;;;-2.74;100.00;99111.31;5085937;28;20374;-73
2024/01/17 09:41:04;;;;;;;24.65;13.10;;;;;;;-2.73;100.00;99113.94;5083534;28;20363;-73
2024/01/17 09:43:30;;;;;;;24.80;13.02;;;;;;;-2.74;100.00;99116.50;5087366;28;20039;-77
2024/01/17 09:45:59;;;;;;;24.33;12.77;;;;;;;-2.70;100.00;99113.16;5083954;28;20033;-74
2024/01/17 09:48:25;;;;;;;26.02;13.55;;;;;;;-2.65;100.00;99109.00;5079901;28;20040;-76
2024/01/17 09:50:51;;;;;;;25.25;13.15;;;;;;;-2.53;100.00;99106.78;5086544;28;20025;-77
2024/01/17 09:53:22;;;;;;;25.27;13.73;;;;;;;-2.46;100.00;99102.69;5083538;28;20581;-77
2024/01/17 09:55:48;;;;;;;25.92;13.35;;;;;;;-2.41;100.00;99100.22;5086216;28;20024;-75
2024/01/17 09:58:15;;;;;;;26.98;14.05;;;;;;;-2.35;100.00;99095.19;5083809;28;20899;-77
2024/01/17 10:00:43;;;;;;;26.27;13.75;;;;;;;-2.30;100.00;99086.75;5083698;28;20060;-74
2024/01/17 10:03:14;;;;;;;27.00;14.77;;;;;;;-2.20;100.00;99087.88;5084598;28;20035;-73
2024/01/17 10:05:40;;;;;;;26.10;14.18;;;;;;;-2.16;100.00;99087.09;5084570;28;20036;-74
2024/01/17 10:08:06;;;;;;;26.35;14.65;;;;;;;-2.11;100.00;99082.06;5085989;28;20028;-75
2024/01/17 10:10:32;;;;;;;26.08;14.98;;;;;;;-2.09;100.00;99082.09;5083762;28;20033;-75
2024/01/17 10:12:57;;;;;;;27.23;15.35;;;;;;;-2.11;100.00;99079.47;5086680;28;20169;-76
2024/01/17 10:15:23;;;;;;;27.10;15.23;;;;;;;-2.13;100.00;99071.63;5083406;28;20111;-76
2024/01/17 10:17:48;;;;;;;27.13;15.77;;;;;;;-2.08;100.00;99076.06;5084543;28;20113;-76
2024/01/17 10:20:14;;;;;;;26.63;15.40;;;;;;;-2.12;100.00;99073.41;5084541;28;20054;-76
2024/01/17 10:22:41;;;;;;;27.80;15.48;;;;;;;-2.14;100.00;99064.72;5084308;28;20032;-74
2024/01/17 10:25:08;;;;;;;27.02;15.77;;;;;;;-2.12;100.00;99072.53;5085641;28;20028;-74
2024/01/17 10:27:34;;;;;;;28.23;16.65;;;;;;;-2.05;100.00;99064.09;5083712;28;20036;-73
2024/01/17 10:30:00;;;;;;;28.42;16.52;;;;;;;-2.01;100.00;99060.75;5086235;28;20028;-75
2024/01/17 10:32:27;;;;;;;27.42;15.80;;;;;;;-2.01;100.00;99059.88;5079007;28;20036;-74
2024/01/17 10:34:53;;;;;;;28.00;15.95;;;;;;;-2.02;100.00;99055.53;5084925;28;20028;-74
2024/01/17 10:37:19;;;;;;;26.85;15.60;;;;;;;-1.96;100.00;99050.50;5083536;28;20032;-73
2024/01/17 10:39:44;;;;;;;28.83;16.50;;;;;;;-1.93;100.00;99045.41;5084812;28;20138;-75
2024/01/17 10:42:20;;;;;;;27.20;15.70;;;;;;;-1.91;100.00;99042.84;5083436;28;20034;-76
2024/01/17 10:44:45;;;;;;;27.58;16.00;;;;;;;-1.89;100.00;99039.47;5084734;28;20033;-76
2024/01/17 10:47:10;;;;;;;28.33;16.20;;;;;;;-1.86;100.00;99042.13;5084749;28;20035;-75
2024/01/17 10:49:36;;;;;;;28.23;16.65;;;;;;;-1.87;100.00;99032.59;5083151;28;20036;-73
2024/01/17 10:52:05;;;;;;;27.48;16.80;;;;;;;-1.93;100.00;99032.47;5085660;28;20028;-76
2024/01/17 10:54:43;;;;;;;28.67;17.40;;;;;;;-1.89;100.00;99021.34;5082631;28;20024;-74
2024/01/17 10:57:10;;;;;;;28.02;16.85;;;;;;;-1.88;100.00;99020.47;5084908;28;20372;-74
2024/01/17 10:59:41;;;;;;;28.58;17.00;;;;;;;-1.85;100.00;99019.69;5082985;28;20467;-74
2024/01/17 11:02:22;;;;;;;27.48;16.63;;;;;;;-1.77;100.00;99024.22;5084781;28;20028;-74